sensor_id;sensor_type;location;lat;lon;timestamp;P1;durP1;ratioP1;P2;durP2;ratioP2
13208;SDS011;6669;42.678;23.332;2023-04-24T00:01:46;5.28;;;4.22;;
13208;SDS011;6669;42.678;23.332;2023-04-24T00:04:14;5.53;;;4.32;;
13208;SDS011;6669;42.678;23.332;2023-04-24T00:06:43;9.68;;;6.78;;
13208;SDS011;6669;42.678;23.332;2023-04-24T00:09:15;4.38;;;3.97;;
13208;SDS011;6669;42.678;23.332;2023-04-24T00:11:43;5.25;;;4.03;;
13208;SDS011;6669;42.678;23.332;2023-04-24T00:14:13;5.67;;;4.63;;
13208;SDS011;6669;42.678;23.332;2023-04-24T00:16:41;4.10;;;3.70;;
13208;SDS011;6669;42.678;23.332;2023-04-24T00:19:09;9.35;;;4.50;;
13208;SDS011;6669;42.678;23.332;2023-04-24T00:21:37;7.33;;;5.83;;
13208;SDS011;6669;42.678;23.332;2023-04-24T00:24:05;6.03;;;4.10;;
13208;SDS011;6669;42.678;23.332;2023-04-24T00:26:35;5.20;;;4.00;;
13208;SDS011;6669;42.678;23.332;2023-04-24T00:29:03;6.93;;;4.10;;
13208;SDS011;6669;42.678;23.332;2023-04-24T00:31:32;4.90;;;4.23;;
13208;SDS011;6669;42.678;23.332;2023-04-24T00:34:01;6.55;;;4.15;;
13208;SDS011;6669;42.678;23.332;2023-04-24T00:36:29;5.23;;;4.13;;
13208;SDS011;6669;42.678;23.332;2023-04-24T00:38:58;9.38;;;4.28;;
13208;SDS011;6669;42.678;23.332;2023-04-24T00:41:26;5.47;;;3.73;;
13208;SDS011;6669;42.678;23.332;2023-04-24T00:43:54;4.83;;;3.90;;
13208;SDS011;6669;42.678;23.332;2023-04-24T00:46:22;5.03;;;4.07;;
13208;SDS011;6669;42.678;23.332;2023-04-24T00:48:52;4.30;;;3.90;;
13208;SDS011;6669;42.678;23.332;2023-04-24T00:51:20;6.03;;;3.70;;
13208;SDS011;6669;42.678;23.332;2023-04-24T00:53:48;6.50;;;3.47;;
13208;SDS011;6669;42.678;23.332;2023-04-24T00:56:17;5.33;;;3.83;;
13208;SDS011;6669;42.678;23.332;2023-04-24T00:58:46;4.43;;;3.47;;
13208;SDS011;6669;42.678;23.332;2023-04-24T01:01:15;3.70;;;3.13;;
13208;SDS011;6669;42.678;23.332;2023-04-24T01:03:43;3.57;;;3.27;;
13208;SDS011;6669;42.678;23.332;2023-04-24T01:06:13;5.13;;;3.83;;
13208;SDS011;6669;42.678;23.332;2023-04-24T01:08:41;4.10;;;3.50;;
13208;SDS011;6669;42.678;23.332;2023-04-24T01:11:10;4.57;;;3.20;;
13208;SDS011;6669;42.678;23.332;2023-04-24T01:13:38;5.17;;;3.40;;
13208;SDS011;6669;42.678;23.332;2023-04-24T01:16:07;6.23;;;3.47;;
13208;SDS011;6669;42.678;23.332;2023-04-24T01:18:35;3.05;;;2.65;;
13208;SDS011;6669;42.678;23.332;2023-04-24T01:21:04;4.07;;;3.23;;
13208;SDS011;6669;42.678;23.332;2023-04-24T01:23:35;3.63;;;3.10;;
13208;SDS011;6669;42.678;23.332;2023-04-24T01:26:03;3.30;;;2.93;;
13208;SDS011;6669;42.678;23.332;2023-04-24T01:28:31;5.00;;;3.30;;
13208;SDS011;6669;42.678;23.332;2023-04-24T01:30:59;4.77;;;3.30;;
13208;SDS011;6669;42.678;23.332;2023-04-24T01:33:27;3.73;;;3.23;;
13208;SDS011;6669;42.678;23.332;2023-04-24T01:35:55;4.43;;;3.40;;
13208;SDS011;6669;42.678;23.332;2023-04-24T01:38:24;6.10;;;3.47;;
13208;SDS011;6669;42.678;23.332;2023-04-24T01:40:53;4.80;;;3.07;;
13208;SDS011;6669;42.678;23.332;2023-04-24T01:43:21;4.27;;;3.27;;
13208;SDS011;6669;42.678;23.332;2023-04-24T01:45:49;4.47;;;3.50;;
13208;SDS011;6669;42.678;23.332;2023-04-24T01:48:17;3.57;;;3.20;;
13208;SDS011;6669;42.678;23.332;2023-04-24T01:50:45;5.00;;;3.60;;
13208;SDS011;6669;42.678;23.332;2023-04-24T01:53:14;4.63;;;3.33;;
13208;SDS011;6669;42.678;23.332;2023-04-24T01:55:42;5.60;;;3.40;;
13208;SDS011;6669;42.678;23.332;2023-04-24T01:58:11;3.93;;;3.00;;
13208;SDS011;6669;42.678;23.332;2023-04-24T02:00:39;3.83;;;3.43;;
13208;SDS011;6669;42.678;23.332;2023-04-24T02:03:07;3.40;;;3.00;;
13208;SDS011;6669;42.678;23.332;2023-04-24T02:05:35;4.67;;;3.33;;
13208;SDS011;6669;42.678;23.332;2023-04-24T02:08:03;5.07;;;3.70;;
13208;SDS011;6669;42.678;23.332;2023-04-24T02:10:31;4.67;;;3.17;;
13208;SDS011;6669;42.678;23.332;2023-04-24T02:12:59;4.23;;;3.53;;
13208;SDS011;6669;42.678;23.332;2023-04-24T02:15:28;3.90;;;3.50;;
13208;SDS011;6669;42.678;23.332;2023-04-24T02:17:56;4.07;;;3.37;;
13208;SDS011;6669;42.678;23.332;2023-04-24T02:20:24;4.37;;;3.50;;
13208;SDS011;6669;42.678;23.332;2023-04-24T02:22:54;4.80;;;3.60;;
13208;SDS011;6669;42.678;23.332;2023-04-24T02:25:23;3.67;;;3.37;;
13208;SDS011;6669;42.678;23.332;2023-04-24T02:27:52;4.77;;;3.77;;
13208;SDS011;6669;42.678;23.332;2023-04-24T02:30:20;4.30;;;3.90;;
13208;SDS011;6669;42.678;23.332;2023-04-24T02:32:49;5.10;;;4.00;;
13208;SDS011;6669;42.678;23.332;2023-04-24T02:35:18;4.00;;;3.53;;
13208;SDS011;6669;42.678;23.332;2023-04-24T02:37:47;6.27;;;3.97;;
13208;SDS011;6669;42.678;23.332;2023-04-24T02:40:15;3.93;;;3.50;;
13208;SDS011;6669;42.678;23.332;2023-04-24T02:42:43;6.50;;;3.80;;
13208;SDS011;6669;42.678;23.332;2023-04-24T02:45:11;4.77;;;3.77;;
13208;SDS011;6669;42.678;23.332;2023-04-24T02:47:38;4.67;;;3.40;;
13208;SDS011;6669;42.678;23.332;2023-04-24T02:50:08;4.83;;;3.77;;
13208;SDS011;6669;42.678;23.332;2023-04-24T02:52:36;3.80;;;3.50;;
13208;SDS011;6669;42.678;23.332;2023-04-24T02:55:05;4.47;;;3.87;;
13208;SDS011;6669;42.678;23.332;2023-04-24T02:57:34;4.33;;;3.93;;
13208;SDS011;6669;42.678;23.332;2023-04-24T03:00:02;4.50;;;4.03;;
13208;SDS011;6669;42.678;23.332;2023-04-24T03:02:33;4.33;;;3.90;;
13208;SDS011;6669;42.678;23.332;2023-04-24T03:05:02;4.20;;;3.80;;
13208;SDS011;6669;42.678;23.332;2023-04-24T03:07:32;4.53;;;4.13;;
13208;SDS011;6669;42.678;23.332;2023-04-24T03:10:00;10.93;;;8.00;;
13208;SDS011;6669;42.678;23.332;2023-04-24T03:12:28;4.50;;;3.90;;
13208;SDS011;6669;42.678;23.332;2023-04-24T03:14:55;4.60;;;3.80;;
13208;SDS011;6669;42.678;23.332;2023-04-24T03:17:23;4.93;;;4.33;;
13208;SDS011;6669;42.678;23.332;2023-04-24T03:19:51;5.17;;;4.10;;
13208;SDS011;6669;42.678;23.332;2023-04-24T03:22:19;5.30;;;4.60;;
13208;SDS011;6669;42.678;23.332;2023-04-24T03:24:49;6.13;;;4.17;;
13208;SDS011;6669;42.678;23.332;2023-04-24T03:27:17;6.10;;;4.70;;
13208;SDS011;6669;42.678;23.332;2023-04-24T03:29:45;4.83;;;4.40;;
13208;SDS011;6669;42.678;23.332;2023-04-24T03:32:13;4.83;;;4.00;;
13208;SDS011;6669;42.678;23.332;2023-04-24T03:34:41;5.13;;;4.40;;
13208;SDS011;6669;42.678;23.332;2023-04-24T03:37:09;4.57;;;3.73;;
13208;SDS011;6669;42.678;23.332;2023-04-24T03:39:37;6.80;;;4.00;;
13208;SDS011;6669;42.678;23.332;2023-04-24T03:42:06;4.83;;;4.00;;
13208;SDS011;6669;42.678;23.332;2023-04-24T03:44:34;7.03;;;4.03;;
13208;SDS011;6669;42.678;23.332;2023-04-24T03:47:03;5.23;;;4.10;;
13208;SDS011;6669;42.678;23.332;2023-04-24T03:49:31;5.83;;;4.23;;
13208;SDS011;6669;42.678;23.332;2023-04-24T03:51:59;6.00;;;4.30;;
13208;SDS011;6669;42.678;23.332;2023-04-24T03:54:27;7.33;;;4.37;;
13208;SDS011;6669;42.678;23.332;2023-04-24T03:56:55;7.30;;;4.80;;
13208;SDS011;6669;42.678;23.332;2023-04-24T03:59:24;7.60;;;4.57;;
13208;SDS011;6669;42.678;23.332;2023-04-24T04:01:52;7.00;;;5.23;;
13208;SDS011;6669;42.678;23.332;2023-04-24T04:04:20;16.07;;;10.60;;
13208;SDS011;6669;42.678;23.332;2023-04-24T04:06:49;5.60;;;5.00;;
13208;SDS011;6669;42.678;23.332;2023-04-24T04:09:17;6.40;;;4.83;;
13208;SDS011;6669;42.678;23.332;2023-04-24T04:11:45;5.07;;;4.50;;
13208;SDS011;6669;42.678;23.332;2023-04-24T04:14:13;9.50;;;5.27;;
13208;SDS011;6669;42.678;23.332;2023-04-24T04:16:42;5.47;;;4.80;;
13208;SDS011;6669;42.678;23.332;2023-04-24T04:19:10;7.20;;;4.93;;
13208;SDS011;6669;42.678;23.332;2023-04-24T04:21:38;9.30;;;5.13;;
13208;SDS011;6669;42.678;23.332;2023-04-24T04:24:06;9.63;;;4.63;;
13208;SDS011;6669;42.678;23.332;2023-04-24T04:26:36;7.40;;;4.10;;
13208;SDS011;6669;42.678;23.332;2023-04-24T04:29:04;5.47;;;4.10;;
13208;SDS011;6669;42.678;23.332;2023-04-24T04:31:33;5.80;;;3.60;;
13208;SDS011;6669;42.678;23.332;2023-04-24T04:34:02;6.03;;;3.67;;
13208;SDS011;6669;42.678;23.332;2023-04-24T04:36:30;5.83;;;3.73;;
13208;SDS011;6669;42.678;23.332;2023-04-24T04:38:58;5.73;;;3.80;;
13208;SDS011;6669;42.678;23.332;2023-04-24T04:41:26;6.13;;;3.77;;
13208;SDS011;6669;42.678;23.332;2023-04-24T04:43:54;5.20;;;3.40;;
13208;SDS011;6669;42.678;23.332;2023-04-24T04:46:24;6.43;;;3.23;;
13208;SDS011;6669;42.678;23.332;2023-04-24T04:48:53;3.57;;;2.83;;
13208;SDS011;6669;42.678;23.332;2023-04-24T04:51:24;4.43;;;2.80;;
13208;SDS011;6669;42.678;23.332;2023-04-24T04:53:52;4.07;;;2.93;;
13208;SDS011;6669;42.678;23.332;2023-04-24T04:56:20;5.27;;;3.20;;
13208;SDS011;6669;42.678;23.332;2023-04-24T04:58:48;7.50;;;3.17;;
13208;SDS011;6669;42.678;23.332;2023-04-24T05:01:16;5.30;;;3.17;;
13208;SDS011;6669;42.678;23.332;2023-04-24T05:03:44;3.20;;;2.90;;
13208;SDS011;6669;42.678;23.332;2023-04-24T05:06:12;7.00;;;2.97;;
13208;SDS011;6669;42.678;23.332;2023-04-24T05:08:41;4.77;;;3.03;;
13208;SDS011;6669;42.678;23.332;2023-04-24T05:11:09;3.60;;;3.10;;
13208;SDS011;6669;42.678;23.332;2023-04-24T05:13:38;7.27;;;3.53;;
13208;SDS011;6669;42.678;23.332;2023-04-24T05:16:06;5.90;;;3.10;;
13208;SDS011;6669;42.678;23.332;2023-04-24T05:18:35;7.33;;;5.17;;
13208;SDS011;6669;42.678;23.332;2023-04-24T05:21:03;5.27;;;3.77;;
13208;SDS011;6669;42.678;23.332;2023-04-24T05:23:31;4.33;;;3.50;;
13208;SDS011;6669;42.678;23.332;2023-04-24T05:26:00;3.53;;;3.23;;
13208;SDS011;6669;42.678;23.332;2023-04-24T05:28:31;4.40;;;3.40;;
13208;SDS011;6669;42.678;23.332;2023-04-24T05:30:59;7.10;;;3.80;;
13208;SDS011;6669;42.678;23.332;2023-04-24T05:33:27;7.00;;;3.97;;
13208;SDS011;6669;42.678;23.332;2023-04-24T05:35:55;6.07;;;4.10;;
13208;SDS011;6669;42.678;23.332;2023-04-24T05:38:23;6.27;;;4.17;;
13208;SDS011;6669;42.678;23.332;2023-04-24T05:40:52;5.97;;;3.70;;
13208;SDS011;6669;42.678;23.332;2023-04-24T05:43:21;5.43;;;3.97;;
13208;SDS011;6669;42.678;23.332;2023-04-24T05:45:49;4.93;;;4.30;;
13208;SDS011;6669;42.678;23.332;2023-04-24T05:48:17;6.33;;;4.87;;
13208;SDS011;6669;42.678;23.332;2023-04-24T05:50:45;5.33;;;4.83;;
13208;SDS011;6669;42.678;23.332;2023-04-24T05:53:14;7.13;;;5.00;;
13208;SDS011;6669;42.678;23.332;2023-04-24T05:55:42;7.80;;;5.57;;
13208;SDS011;6669;42.678;23.332;2023-04-24T05:58:11;7.80;;;4.80;;
13208;SDS011;6669;42.678;23.332;2023-04-24T06:00:40;6.80;;;4.77;;
13208;SDS011;6669;42.678;23.332;2023-04-24T06:03:09;6.57;;;4.77;;
13208;SDS011;6669;42.678;23.332;2023-04-24T06:05:38;5.05;;;4.40;;
13208;SDS011;6669;42.678;23.332;2023-04-24T06:08:06;5.93;;;5.13;;
13208;SDS011;6669;42.678;23.332;2023-04-24T06:10:34;6.85;;;5.22;;
13208;SDS011;6669;42.678;23.332;2023-04-24T06:13:02;6.20;;;4.97;;
13208;SDS011;6669;42.678;23.332;2023-04-24T06:15:30;6.70;;;4.63;;
13208;SDS011;6669;42.678;23.332;2023-04-24T06:17:59;6.53;;;4.90;;
13208;SDS011;6669;42.678;23.332;2023-04-24T06:20:27;6.13;;;5.10;;
13208;SDS011;6669;42.678;23.332;2023-04-24T06:22:55;6.32;;;5.22;;
13208;SDS011;6669;42.678;23.332;2023-04-24T06:25:24;5.85;;;4.80;;
13208;SDS011;6669;42.678;23.332;2023-04-24T06:27:53;6.53;;;5.13;;
13208;SDS011;6669;42.678;23.332;2023-04-24T06:30:21;8.40;;;5.40;;
13208;SDS011;6669;42.678;23.332;2023-04-24T06:32:50;5.95;;;4.80;;
13208;SDS011;6669;42.678;23.332;2023-04-24T06:35:19;6.00;;;5.40;;
13208;SDS011;6669;42.678;23.332;2023-04-24T06:37:48;7.88;;;5.45;;
13208;SDS011;6669;42.678;23.332;2023-04-24T06:40:16;8.60;;;4.85;;
13208;SDS011;6669;42.678;23.332;2023-04-24T06:42:45;6.78;;;5.70;;
13208;SDS011;6669;42.678;23.332;2023-04-24T06:45:13;8.02;;;6.07;;
13208;SDS011;6669;42.678;23.332;2023-04-24T06:47:41;6.10;;;5.40;;
13208;SDS011;6669;42.678;23.332;2023-04-24T06:50:09;9.05;;;5.47;;
13208;SDS011;6669;42.678;23.332;2023-04-24T06:52:40;9.52;;;7.05;;
13208;SDS011;6669;42.678;23.332;2023-04-24T06:55:08;12.48;;;7.10;;
13208;SDS011;6669;42.678;23.332;2023-04-24T06:57:37;8.70;;;5.78;;
13208;SDS011;6669;42.678;23.332;2023-04-24T07:00:05;9.30;;;5.60;;
13208;SDS011;6669;42.678;23.332;2023-04-24T07:02:35;10.98;;;5.47;;
13208;SDS011;6669;42.678;23.332;2023-04-24T07:05:04;6.93;;;5.35;;
13208;SDS011;6669;42.678;23.332;2023-04-24T07:07:33;9.30;;;5.57;;
13208;SDS011;6669;42.678;23.332;2023-04-24T07:10:06;6.97;;;5.20;;
13208;SDS011;6669;42.678;23.332;2023-04-24T07:12:35;11.90;;;5.63;;
13208;SDS011;6669;42.678;23.332;2023-04-24T07:15:04;7.72;;;5.63;;
13208;SDS011;6669;42.678;23.332;2023-04-24T07:17:34;7.00;;;5.43;;
13208;SDS011;6669;42.678;23.332;2023-04-24T07:20:02;6.35;;;5.35;;
13208;SDS011;6669;42.678;23.332;2023-04-24T07:22:31;5.93;;;5.13;;
13208;SDS011;6669;42.678;23.332;2023-04-24T07:24:59;12.38;;;6.32;;
13208;SDS011;6669;42.678;23.332;2023-04-24T07:27:29;8.05;;;5.72;;
13208;SDS011;6669;42.678;23.332;2023-04-24T07:29:57;10.30;;;5.60;;
13208;SDS011;6669;42.678;23.332;2023-04-24T07:32:25;9.07;;;5.68;;
13208;SDS011;6669;42.678;23.332;2023-04-24T07:34:53;6.47;;;4.85;;
13208;SDS011;6669;42.678;23.332;2023-04-24T07:37:21;8.85;;;5.25;;
13208;SDS011;6669;42.678;23.332;2023-04-24T07:39:50;8.18;;;5.40;;
13208;SDS011;6669;42.678;23.332;2023-04-24T07:42:18;5.07;;;4.57;;
13208;SDS011;6669;42.678;23.332;2023-04-24T07:44:47;5.63;;;4.82;;
13208;SDS011;6669;42.678;23.332;2023-04-24T07:47:15;5.35;;;4.53;;
13208;SDS011;6669;42.678;23.332;2023-04-24T07:49:43;5.05;;;4.50;;
13208;SDS011;6669;42.678;23.332;2023-04-24T07:52:11;8.05;;;4.80;;
13208;SDS011;6669;42.678;23.332;2023-04-24T07:54:39;5.28;;;4.60;;
13208;SDS011;6669;42.678;23.332;2023-04-24T07:57:10;7.15;;;5.03;;
13208;SDS011;6669;42.678;23.332;2023-04-24T07:59:38;5.53;;;4.68;;
13208;SDS011;6669;42.678;23.332;2023-04-24T08:02:07;6.55;;;5.00;;
13208;SDS011;6669;42.678;23.332;2023-04-24T08:04:36;8.05;;;4.70;;
13208;SDS011;6669;42.678;23.332;2023-04-24T08:07:04;5.45;;;4.63;;
13208;SDS011;6669;42.678;23.332;2023-04-24T08:09:32;6.03;;;4.50;;
13208;SDS011;6669;42.678;23.332;2023-04-24T08:12:00;6.90;;;5.07;;
13208;SDS011;6669;42.678;23.332;2023-04-24T08:14:29;6.07;;;4.90;;
13208;SDS011;6669;42.678;23.332;2023-04-24T08:16:57;4.85;;;4.35;;
13208;SDS011;6669;42.678;23.332;2023-04-24T08:19:27;4.93;;;4.25;;
13208;SDS011;6669;42.678;23.332;2023-04-24T08:21:55;5.22;;;4.35;;
13208;SDS011;6669;42.678;23.332;2023-04-24T08:24:23;6.68;;;4.53;;
13208;SDS011;6669;42.678;23.332;2023-04-24T08:26:51;6.60;;;4.05;;
13208;SDS011;6669;42.678;23.332;2023-04-24T08:29:20;4.90;;;4.30;;
13208;SDS011;6669;42.678;23.332;2023-04-24T08:31:48;4.32;;;3.92;;
13208;SDS011;6669;42.678;23.332;2023-04-24T08:34:16;4.82;;;3.88;;
13208;SDS011;6669;42.678;23.332;2023-04-24T08:36:46;4.82;;;3.70;;
13208;SDS011;6669;42.678;23.332;2023-04-24T08:39:14;5.13;;;4.28;;
13208;SDS011;6669;42.678;23.332;2023-04-24T08:41:43;5.55;;;4.03;;
13208;SDS011;6669;42.678;23.332;2023-04-24T08:44:12;4.82;;;4.32;;
13208;SDS011;6669;42.678;23.332;2023-04-24T08:46:42;5.75;;;3.88;;
13208;SDS011;6669;42.678;23.332;2023-04-24T08:49:12;5.18;;;3.95;;
13208;SDS011;6669;42.678;23.332;2023-04-24T08:51:42;4.60;;;3.65;;
13208;SDS011;6669;42.678;23.332;2023-04-24T08:56:42;5.85;;;4.20;;
13208;SDS011;6669;42.678;23.332;2023-04-24T08:59:11;4.00;;;3.50;;
13208;SDS011;6669;42.678;23.332;2023-04-24T09:01:40;4.28;;;3.83;;
13208;SDS011;6669;42.678;23.332;2023-04-24T09:04:09;3.80;;;3.45;;
13208;SDS011;6669;42.678;23.332;2023-04-24T09:06:39;3.78;;;3.45;;
13208;SDS011;6669;42.678;23.332;2023-04-24T09:09:08;5.15;;;3.58;;
13208;SDS011;6669;42.678;23.332;2023-04-24T09:11:39;5.95;;;3.88;;
13208;SDS011;6669;42.678;23.332;2023-04-24T09:14:09;4.28;;;3.60;;
13208;SDS011;6669;42.678;23.332;2023-04-24T09:16:37;3.88;;;3.50;;
13208;SDS011;6669;42.678;23.332;2023-04-24T09:19:05;6.00;;;3.42;;
13208;SDS011;6669;42.678;23.332;2023-04-24T09:21:33;4.63;;;3.67;;
13208;SDS011;6669;42.678;23.332;2023-04-24T09:24:03;4.13;;;3.75;;
13208;SDS011;6669;42.678;23.332;2023-04-24T09:26:34;5.28;;;3.90;;
13208;SDS011;6669;42.678;23.332;2023-04-24T09:29:04;4.68;;;3.53;;
13208;SDS011;6669;42.678;23.332;2023-04-24T09:31:32;6.13;;;3.63;;
13208;SDS011;6669;42.678;23.332;2023-04-24T09:34:01;6.30;;;3.35;;
13208;SDS011;6669;42.678;23.332;2023-04-24T09:36:34;4.22;;;3.42;;
13208;SDS011;6669;42.678;23.332;2023-04-24T09:39:05;5.95;;;3.40;;
13208;SDS011;6669;42.678;23.332;2023-04-24T09:41:43;5.18;;;3.60;;
13208;SDS011;6669;42.678;23.332;2023-04-24T09:44:13;3.65;;;3.35;;
13208;SDS011;6669;42.678;23.332;2023-04-24T09:46:43;6.97;;;2.90;;
13208;SDS011;6669;42.678;23.332;2023-04-24T09:49:13;4.63;;;3.20;;
13208;SDS011;6669;42.678;23.332;2023-04-24T09:51:42;4.07;;;3.55;;
13208;SDS011;6669;42.678;23.332;2023-04-24T09:54:13;11.95;;;8.55;;
13208;SDS011;6669;42.678;23.332;2023-04-24T09:56:43;4.85;;;3.75;;
13208;SDS011;6669;42.678;23.332;2023-04-24T09:59:14;5.78;;;3.40;;
13208;SDS011;6669;42.678;23.332;2023-04-24T10:01:44;4.20;;;3.33;;
13208;SDS011;6669;42.678;23.332;2023-04-24T10:04:16;6.55;;;3.20;;
13208;SDS011;6669;42.678;23.332;2023-04-24T10:06:46;3.65;;;3.35;;
13208;SDS011;6669;42.678;23.332;2023-04-24T10:09:15;4.22;;;2.85;;
13208;SDS011;6669;42.678;23.332;2023-04-24T10:11:45;4.00;;;3.60;;
13208;SDS011;6669;42.678;23.332;2023-04-24T10:14:15;3.70;;;3.40;;
13208;SDS011;6669;42.678;23.332;2023-04-24T10:16:44;7.93;;;4.18;;
13208;SDS011;6669;42.678;23.332;2023-04-24T10:19:13;4.30;;;3.65;;
13208;SDS011;6669;42.678;23.332;2023-04-24T10:21:42;5.03;;;3.80;;
13208;SDS011;6669;42.678;23.332;2023-04-24T10:24:13;5.07;;;3.17;;
13208;SDS011;6669;42.678;23.332;2023-04-24T10:26:41;3.78;;;3.47;;
13208;SDS011;6669;42.678;23.332;2023-04-24T10:29:10;3.25;;;2.95;;
13208;SDS011;6669;42.678;23.332;2023-04-24T10:31:40;3.45;;;3.15;;
13208;SDS011;6669;42.678;23.332;2023-04-24T10:34:12;6.85;;;3.92;;
13208;SDS011;6669;42.678;23.332;2023-04-24T10:36:43;3.38;;;3.08;;
13208;SDS011;6669;42.678;23.332;2023-04-24T10:39:13;5.15;;;3.03;;
13208;SDS011;6669;42.678;23.332;2023-04-24T10:41:44;3.30;;;3.00;;
13208;SDS011;6669;42.678;23.332;2023-04-24T10:44:13;3.83;;;3.08;;
13208;SDS011;6669;42.678;23.332;2023-04-24T10:46:44;3.65;;;3.03;;
13208;SDS011;6669;42.678;23.332;2023-04-24T10:49:14;4.80;;;3.22;;
13208;SDS011;6669;42.678;23.332;2023-04-24T10:51:45;5.60;;;3.15;;
13208;SDS011;6669;42.678;23.332;2023-04-24T10:54:21;3.88;;;3.33;;
13208;SDS011;6669;42.678;23.332;2023-04-24T10:56:50;6.40;;;3.22;;
13208;SDS011;6669;42.678;23.332;2023-04-24T10:59:25;4.50;;;3.33;;
13208;SDS011;6669;42.678;23.332;2023-04-24T11:01:56;3.30;;;3.00;;
13208;SDS011;6669;42.678;23.332;2023-04-24T11:04:30;3.97;;;3.20;;
13208;SDS011;6669;42.678;23.332;2023-04-24T11:07:02;4.63;;;3.20;;
13208;SDS011;6669;42.678;23.332;2023-04-24T11:09:31;5.95;;;5.45;;
13208;SDS011;6669;42.678;23.332;2023-04-24T11:12:03;3.85;;;3.42;;
13208;SDS011;6669;42.678;23.332;2023-04-24T11:17:31;4.43;;;3.38;;
13208;SDS011;6669;42.678;23.332;2023-04-24T11:20:01;4.15;;;3.17;;
13208;SDS011;6669;42.678;23.332;2023-04-24T11:22:50;4.90;;;3.20;;
13208;SDS011;6669;42.678;23.332;2023-04-24T11:25:22;5.82;;;3.45;;
13208;SDS011;6669;42.678;23.332;2023-04-24T11:27:52;6.20;;;3.63;;
13208;SDS011;6669;42.678;23.332;2023-04-24T11:30:31;2.72;;;2.50;;
13208;SDS011;6669;42.678;23.332;2023-04-24T11:33:03;6.05;;;3.17;;
13208;SDS011;6669;42.678;23.332;2023-04-24T11:35:34;2.72;;;2.22;;
13208;SDS011;6669;42.678;23.332;2023-04-24T11:38:06;2.53;;;2.33;;
13208;SDS011;6669;42.678;23.332;2023-04-24T11:40:37;2.60;;;2.40;;
13208;SDS011;6669;42.678;23.332;2023-04-24T11:43:06;2.47;;;2.28;;
13208;SDS011;6669;42.678;23.332;2023-04-24T11:45:36;4.25;;;2.78;;
13208;SDS011;6669;42.678;23.332;2023-04-24T11:48:05;2.78;;;2.40;;
13208;SDS011;6669;42.678;23.332;2023-04-24T11:50:33;2.47;;;2.28;;
13208;SDS011;6669;42.678;23.332;2023-04-24T11:53:02;2.92;;;2.50;;
13208;SDS011;6669;42.678;23.332;2023-04-24T11:55:31;3.85;;;2.80;;
13208;SDS011;6669;42.678;23.332;2023-04-24T11:57:59;4.90;;;2.38;;
13208;SDS011;6669;42.678;23.332;2023-04-24T12:00:28;2.70;;;2.50;;
13208;SDS011;6669;42.678;23.332;2023-04-24T12:03:06;2.97;;;2.30;;
13208;SDS011;6669;42.678;23.332;2023-04-24T12:05:36;2.83;;;2.63;;
13208;SDS011;6669;42.678;23.332;2023-04-24T12:08:04;3.00;;;2.63;;
13208;SDS011;6669;42.678;23.332;2023-04-24T12:10:33;2.90;;;2.70;;
13208;SDS011;6669;42.678;23.332;2023-04-24T12:13:02;4.35;;;2.70;;
13208;SDS011;6669;42.678;23.332;2023-04-24T12:15:30;3.53;;;2.75;;
13208;SDS011;6669;42.678;23.332;2023-04-24T12:17:58;3.38;;;2.72;;
13208;SDS011;6669;42.678;23.332;2023-04-24T12:20:29;2.70;;;2.50;;
13208;SDS011;6669;42.678;23.332;2023-04-24T12:22:59;2.78;;;2.58;;
13208;SDS011;6669;42.678;23.332;2023-04-24T12:25:28;2.92;;;2.50;;
13208;SDS011;6669;42.678;23.332;2023-04-24T12:28:08;4.03;;;2.65;;
13208;SDS011;6669;42.678;23.332;2023-04-24T12:30:39;5.07;;;2.60;;
13208;SDS011;6669;42.678;23.332;2023-04-24T12:33:09;3.72;;;2.67;;
13208;SDS011;6669;42.678;23.332;2023-04-24T12:35:39;2.72;;;2.53;;
13208;SDS011;6669;42.678;23.332;2023-04-24T12:38:08;3.55;;;2.30;;
13208;SDS011;6669;42.678;23.332;2023-04-24T12:40:39;2.40;;;2.20;;
13208;SDS011;6669;42.678;23.332;2023-04-24T12:43:14;2.53;;;2.30;;
13208;SDS011;6669;42.678;23.332;2023-04-24T12:45:43;2.33;;;2.13;;
13208;SDS011;6669;42.678;23.332;2023-04-24T12:48:11;2.45;;;2.25;;
13208;SDS011;6669;42.678;23.332;2023-04-24T12:50:42;3.63;;;2.50;;
13208;SDS011;6669;42.678;23.332;2023-04-24T12:53:13;3.35;;;3.03;;
13208;SDS011;6669;42.678;23.332;2023-04-24T12:55:41;2.63;;;2.42;;
13208;SDS011;6669;42.678;23.332;2023-04-24T12:58:10;4.50;;;2.58;;
13208;SDS011;6669;42.678;23.332;2023-04-24T13:00:39;5.00;;;2.83;;
13208;SDS011;6669;42.678;23.332;2023-04-24T13:03:10;4.18;;;2.70;;
13208;SDS011;6669;42.678;23.332;2023-04-24T13:05:38;3.50;;;2.83;;
13208;SDS011;6669;42.678;23.332;2023-04-24T13:08:07;4.72;;;2.67;;
13208;SDS011;6669;42.678;23.332;2023-04-24T13:10:35;5.50;;;2.85;;
13208;SDS011;6669;42.678;23.332;2023-04-24T13:13:04;5.25;;;2.92;;
13208;SDS011;6669;42.678;23.332;2023-04-24T13:15:32;2.85;;;2.58;;
13208;SDS011;6669;42.678;23.332;2023-04-24T13:18:00;2.85;;;2.60;;
13208;SDS011;6669;42.678;23.332;2023-04-24T13:20:29;3.05;;;2.75;;
13208;SDS011;6669;42.678;23.332;2023-04-24T13:22:57;3.17;;;2.88;;
13208;SDS011;6669;42.678;23.332;2023-04-24T13:25:26;3.05;;;2.55;;
13208;SDS011;6669;42.678;23.332;2023-04-24T13:27:56;5.15;;;2.90;;
13208;SDS011;6669;42.678;23.332;2023-04-24T13:30:23;4.55;;;2.78;;
13208;SDS011;6669;42.678;23.332;2023-04-24T13:32:51;3.17;;;2.22;;
13208;SDS011;6669;42.678;23.332;2023-04-24T13:35:19;3.42;;;2.85;;
13208;SDS011;6669;42.678;23.332;2023-04-24T13:37:47;3.33;;;2.63;;
13208;SDS011;6669;42.678;23.332;2023-04-24T13:40:21;4.00;;;3.00;;
13208;SDS011;6669;42.678;23.332;2023-04-24T13:42:51;5.68;;;2.75;;
13208;SDS011;6669;42.678;23.332;2023-04-24T13:45:20;3.35;;;2.60;;
13208;SDS011;6669;42.678;23.332;2023-04-24T13:47:51;2.80;;;2.60;;
13208;SDS011;6669;42.678;23.332;2023-04-24T13:50:20;3.80;;;2.45;;
13208;SDS011;6669;42.678;23.332;2023-04-24T13:52:48;3.85;;;2.42;;
13208;SDS011;6669;42.678;23.332;2023-04-24T13:55:16;2.70;;;2.47;;
13208;SDS011;6669;42.678;23.332;2023-04-24T13:57:45;3.40;;;2.80;;
13208;SDS011;6669;42.678;23.332;2023-04-24T14:00:15;4.95;;;3.20;;
13208;SDS011;6669;42.678;23.332;2023-04-24T14:02:43;4.90;;;3.03;;
13208;SDS011;6669;42.678;23.332;2023-04-24T14:05:12;3.38;;;2.60;;
13208;SDS011;6669;42.678;23.332;2023-04-24T14:07:40;6.38;;;2.63;;
13208;SDS011;6669;42.678;23.332;2023-04-24T14:10:09;3.95;;;2.38;;
13208;SDS011;6669;42.678;23.332;2023-04-24T14:12:37;4.55;;;2.80;;
13208;SDS011;6669;42.678;23.332;2023-04-24T14:15:11;2.83;;;2.60;;
13208;SDS011;6669;42.678;23.332;2023-04-24T14:17:41;3.92;;;2.60;;
13208;SDS011;6669;42.678;23.332;2023-04-24T14:20:10;3.25;;;2.50;;
13208;SDS011;6669;42.678;23.332;2023-04-24T14:22:39;4.30;;;2.60;;
13208;SDS011;6669;42.678;23.332;2023-04-24T14:25:09;4.85;;;3.00;;
13208;SDS011;6669;42.678;23.332;2023-04-24T14:27:37;3.85;;;2.47;;
13208;SDS011;6669;42.678;23.332;2023-04-24T14:30:06;2.60;;;2.40;;
13208;SDS011;6669;42.678;23.332;2023-04-24T14:32:35;5.97;;;2.88;;
13208;SDS011;6669;42.678;23.332;2023-04-24T14:35:08;3.33;;;2.42;;
13208;SDS011;6669;42.678;23.332;2023-04-24T14:37:36;3.40;;;3.00;;
13208;SDS011;6669;42.678;23.332;2023-04-24T14:40:04;3.80;;;2.60;;
13208;SDS011;6669;42.678;23.332;2023-04-24T14:42:54;2.20;;;2.10;;
13208;SDS011;6669;42.678;23.332;2023-04-24T14:45:23;4.50;;;2.20;;
13208;SDS011;6669;42.678;23.332;2023-04-24T14:47:51;3.30;;;2.58;;
13208;SDS011;6669;42.678;23.332;2023-04-24T14:50:21;2.47;;;2.35;;
13208;SDS011;6669;42.678;23.332;2023-04-24T14:52:50;3.80;;;2.53;;
13208;SDS011;6669;42.678;23.332;2023-04-24T14:55:18;3.40;;;2.55;;
13208;SDS011;6669;42.678;23.332;2023-04-24T14:57:47;2.58;;;2.38;;
13208;SDS011;6669;42.678;23.332;2023-04-24T15:00:15;2.95;;;2.65;;
13208;SDS011;6669;42.678;23.332;2023-04-24T15:02:44;3.50;;;2.63;;
13208;SDS011;6669;42.678;23.332;2023-04-24T15:05:12;3.78;;;2.97;;